Diyarbakır Airport

LTCC · Diyarbakır, Turquía

METAR pasados LTCC · Diyarbakir Airport

A continuación puedes ver los METAR de los últimos días. Selecciona un año para ver los METAR más antiguos, desde el año 2007 en adelante.

17 de abril de 2024

Hora Código Tiempo Temp. Visibilidad Cielo nuboso Viento METAR/SPECI
07:20
V
14 °C 10 km+ - 290° 290° 2 kt METAR LTCC 170420Z 29002KT CAVOK 14/10 Q1016 NOSIG RMK RWY16 00000KT SKC
07:20
V
14 °C 10 km+ - 290° 290° 2 kt METAR LTCC 170420Z 29002KT CAVOK 14/10 Q1016 NOSIG
06:50
V
11 °C 10 km+ - 320° 320° 1 kt METAR LTCC 170350Z 32001KT CAVOK 11/09 Q1015 NOSIG
06:20
V
9 °C 10 km+ - 300° 300° 2 kt METAR LTCC 170320Z 30002KT CAVOK 09/07 Q1015 NOSIG
05:50
V
8 °C 10 km+ - 260° 260° 2 kt METAR LTCC 170250Z 26002KT CAVOK 08/07 Q1015 NOSIG RMK RWY16 00000KT SKC
05:20
V
9 °C 10 km+ - 240° 240° 3 kt METAR LTCC 170220Z 24003KT CAVOK 09/07 Q1015 NOSIG
04:50
V
9 °C 10 km+ - 190° 190° 1 kt METAR LTCC 170150Z 19001KT CAVOK 09/07 Q1015 NOSIG RMK RWY16 00000KT SKC
04:20
V
10 °C 10 km+ - 140° 140° 1 kt METAR LTCC 170120Z 14001KT CAVOK 10/08 Q1015 NOSIG
03:50
V
10 °C 10 km+ - 360° 360° 0 kt METAR LTCC 170050Z 00000KT CAVOK 10/07 Q1015 NOSIG RMK RWY16 00000KT SKC
03:20
V
11 °C 10 km+ - 270° 270° 3 kt METAR LTCC 170020Z 27003KT CAVOK 11/07 Q1016 NOSIG
02:50
V
11 °C 10 km+ - 270° 270° 2 kt METAR LTCC 162350Z 27002KT CAVOK 11/08 Q1016 NOSIG RMK RWY16 17001KT SKC
02:20
V
11 °C 10 km+ - 280° 280° 1 kt METAR LTCC 162320Z 28001KT CAVOK 11/08 Q1016 NOSIG
01:50
V
12 °C 10 km+ - 300° 300° 3 kt METAR LTCC 162250Z 30003KT CAVOK 12/08 Q1016 NOSIG RMK RWY16 00000KT SKC
01:20
V
11 °C 10 km+ - 280° 280° 3 kt METAR LTCC 162220Z 28003KT CAVOK 11/07 Q1016 NOSIG
00:50
V
11 °C 10 km+ - 260° 260° 4 kt METAR LTCC 162150Z 26004KT CAVOK 11/07 Q1016 NOSIG RMK RWY16 00000KT SKC
00:20
V
12 °C 10 km+ - 260° 260° 4 kt METAR LTCC 162120Z 26004KT CAVOK 12/07 Q1016 NOSIG

16 de abril de 2024

Hora Código Tiempo Temp. Visibilidad Cielo nuboso Viento METAR/SPECI
23:50
V
13 °C 10 km+ - 290° 290° 3 kt METAR LTCC 162050Z 29003KT CAVOK 13/07 Q1016 NOSIG RMK RWY16 00000KT SKC
23:20
V
12 °C 10 km+ - 270° 270° 5 kt METAR LTCC 162020Z 27005KT CAVOK 12/07 Q1016 NOSIG
22:50
V
12 °C 10 km+ - 280° 280° 3 kt METAR LTCC 161950Z 28003KT 240V300 CAVOK 12/07 Q1016 NOSIG RMK RWY16 00000KT SKC
22:20
V
13 °C 10 km+ - 270° 270° 3 kt METAR LTCC 161920Z 27003KT CAVOK 13/08 Q1016 NOSIG
21:50
V
14 °C 10 km+ - 260° 260° 4 kt METAR LTCC 161850Z 26004KT CAVOK 14/09 Q1016 NOSIG RMK RWY16 00000KT SKC
21:20
V
16 °C 10 km+ - 260° 260° 4 kt METAR LTCC 161820Z 26004KT CAVOK 16/07 Q1016 NOSIG
20:50
V
16 °C 10 km+ - 270° 270° 4 kt METAR LTCC 161750Z 27004KT 220V290 CAVOK 16/06 Q1016 NOSIG RMK RWY16 28004KT 260V340 SKC
20:20
V
17 °C 10 km+ - Var Var 2 kt METAR LTCC 161720Z VRB02KT CAVOK 17/06 Q1016 NOSIG
19:50
V
20 °C 10 km+ - 070° 070° 1 kt METAR LTCC 161650Z 07001KT CAVOK 20/06 Q1016 NOSIG
19:20
V
20 °C 10 km+ - 110° 110° 1 kt METAR LTCC 161620Z 11001KT CAVOK 20/06 Q1016 NOSIG
18:50
V
21 °C 10 km+ - Var Var 1 kt METAR LTCC 161550Z VRB01KT CAVOK 21/07 Q1016 NOSIG RMK RWY16 00000KT SKC
18:20
V
23 °C 10 km+ - 100° 100° 3 kt METAR LTCC 161520Z 10003KT CAVOK 23/06 Q1016 NOSIG
17:50
V
24 °C 10 km+ - Var Var 2 kt METAR LTCC 161450Z VRB02KT CAVOK 24/08 Q1016 NOSIG RMK RWY16 VRB02KT SKC
17:20
V
24 °C 10 km+ - Var Var 2 kt METAR LTCC 161420Z VRB02KT CAVOK 24/06 Q1016 NOSIG
16:50
V
24 °C 10 km+ - 090° 090° 5 kt METAR LTCC 161350Z 09005KT 030V130 CAVOK 24/05 Q1016 NOSIG
16:20
V
25 °C 10 km+ - 050° 050° 4 kt METAR LTCC 161320Z 05004KT 010V160 CAVOK 25/04 Q1016 NOSIG
15:50
V
25 °C 10 km+ - 100° 100° 4 kt METAR LTCC 161250Z 10004KT 020V150 CAVOK 25/05 Q1016 NOSIG RMK RWY16 06006KT 360V110 SKC
15:20
V
25 °C 10 km+ - 140° 140° 4 kt METAR LTCC 161220Z 14004KT 080V210 CAVOK 25/09 Q1016 NOSIG
14:50
V
25 °C 10 km+ - 130° 130° 5 kt METAR LTCC 161150Z 13005KT 090V170 CAVOK 25/08 Q1016 NOSIG RMK RWY16 08006KT 360V110 SKC
14:20
V
25 °C 10 km+ - 130° 130° 4 kt METAR LTCC 161120Z 13004KT 080V210 CAVOK 25/07 Q1017 NOSIG
13:50
V
24 °C 10 km+ - 140° 140° 4 kt METAR LTCC 161050Z 14004KT 050V190 CAVOK 24/09 Q1017 NOSIG RMK RWY16 VRB05KT SKC
13:20
V
24 °C 10 km+ - 110° 110° 5 kt METAR LTCC 161020Z 11005KT 070V170 CAVOK 24/12 Q1017 NOSIG
12:50
V
24 °C 10 km+ - Var Var 3 kt METAR LTCC 160950Z VRB03KT CAVOK 24/09 Q1018 NOSIG RMK RWY16 VRB01KT SKC
12:20
V
24 °C 10 km+ - 120° 120° 4 kt METAR LTCC 160920Z 12004KT 050V220 CAVOK 24/12 Q1018 NOSIG
11:50
V
23 °C 10 km+ - 070° 070° 4 kt METAR LTCC 160850Z 07004KT 010V150 CAVOK 23/11 Q1018 NOSIG RMK RWY16 VRB03KT SKC
11:20
V
22 °C 10 km+ - 070° 070° 5 kt METAR LTCC 160820Z 07005KT 030V120 CAVOK 22/10 Q1018 NOSIG
10:50
V
22 °C 10 km+ - 030° 030° 4 kt METAR LTCC 160750Z 03004KT 320V120 CAVOK 22/09 Q1018 NOSIG RMK RWY16 VRB02KT SKC
10:20
V
21 °C 10 km+ - 360° 360° 3 kt METAR LTCC 160720Z 36003KT 290V060 CAVOK 21/09 Q1018 NOSIG
09:50
V
20 °C 10 km+ - 050° 050° 5 kt METAR LTCC 160650Z 05005KT 350V100 CAVOK 20/10 Q1018 NOSIG RMK RWY16 01005KT 340V080 SKC
09:20
V
20 °C 10 km+ - Var Var 2 kt METAR LTCC 160620Z VRB02KT CAVOK 20/10 Q1018 NOSIG
08:50
V
18 °C 10 km+ - Var Var 2 kt METAR LTCC 160550Z VRB02KT CAVOK 18/12 Q1018 NOSIG RMK RWY16 00000KT SKC
08:20
V
16 °C 10 km+ - Var Var 2 kt METAR LTCC 160520Z VRB02KT CAVOK 16/10 Q1018 NOSIG
07:50
V
14 °C 10 km+ - Var Var 1 kt METAR LTCC 160450Z VRB01KT CAVOK 14/10 Q1018 NOSIG
07:20
V
13 °C 10 km+ - Var Var 2 kt METAR LTCC 160420Z VRB02KT CAVOK 13/10 Q1018 NOSIG
06:50
V
12 °C 10 km+ - Var Var 1 kt METAR LTCC 160350Z VRB01KT CAVOK 12/09 Q1018 NOSIG RMK RWY16 00000KT SKC
06:20
V
11 °C 10 km+ - 240° 240° 1 kt METAR LTCC 160320Z 24001KT CAVOK 11/08 Q1018 NOSIG
05:50
V
9 °C 10 km+ - 270° 270° 2 kt METAR LTCC 160250Z 27002KT CAVOK 09/07 Q1017 NOSIG RMK RWY16 00000KT SKC
05:20
V
9 °C 10 km+ - Var Var 2 kt METAR LTCC 160220Z VRB02KT CAVOK 09/08 Q1017 NOSIG
04:50
V
9 °C 10 km+ - 280° 280° 2 kt METAR LTCC 160150Z 28002KT CAVOK 09/08 Q1017 NOSIG RMK RWY16 00000KT SKC
04:20
V
9 °C 10 km+ - 300° 300° 4 kt METAR LTCC 160120Z 30004KT 260V320 CAVOK 09/07 Q1017 NOSIG
03:50
V
9 °C 10 km+ - 280° 280° 4 kt METAR LTCC 160050Z 28004KT CAVOK 09/08 Q1017 NOSIG
03:20
V
9 °C 10 km+ - 300° 300° 4 kt METAR LTCC 160020Z 30004KT CAVOK 09/08 Q1017 NOSIG
02:50
V
10 °C 10 km+ - 280° 280° 4 kt METAR LTCC 152350Z 28004KT CAVOK 10/08 Q1017 NOSIG RMK RWY16 00000KT SKC
02:20
V
11 °C 10 km+ - 250° 250° 3 kt METAR LTCC 152320Z 25003KT CAVOK 11/09 Q1017 NOSIG
01:50
V
10 °C 10 km+ - Var Var 2 kt METAR LTCC 152250Z VRB02KT CAVOK 10/08 Q1017 NOSIG RMK RWY16 00000KT SKC
01:20
V
11 °C 10 km+ - 260° 260° 3 kt METAR LTCC 152220Z 26003KT CAVOK 11/09 Q1017 NOSIG
00:50
V
11 °C 10 km+ - 270° 270° 3 kt METAR LTCC 152150Z 27003KT CAVOK 11/09 Q1017 NOSIG RMK RWY16 00000KT SKC
00:20
V
12 °C 10 km+ - 270° 270° 4 kt METAR LTCC 152120Z 27004KT CAVOK 12/09 Q1017 NOSIG

15 de abril de 2024

Hora Código Tiempo Temp. Visibilidad Cielo nuboso Viento METAR/SPECI
23:50
V
12 °C 10 km+ - 260° 260° 4 kt METAR LTCC 152050Z 26004KT CAVOK 12/08 Q1017 NOSIG RMK RWY16 00000KT SKC
23:20
V
13 °C 10 km+ - 240° 240° 2 kt METAR LTCC 152020Z 24002KT CAVOK 13/09 Q1017 NOSIG
22:50
V
13 °C 10 km+ - 150° 150° 4 kt METAR LTCC 151950Z 15004KT 020V170 CAVOK 13/09 Q1017 NOSIG RMK RWY16 01005KT 350V050 SKC
22:20
V
14 °C 10 km+ - 030° 030° 2 kt METAR LTCC 151920Z 03002KT CAVOK 14/09 Q1017 NOSIG
21:50
V
14 °C 10 km+ - 320° 320° 6 kt METAR LTCC 151850Z 32006KT CAVOK 14/09 Q1017 NOSIG RMK RWY16 36002KT SKC
21:20
V
14 °C 10 km+ - 300° 300° 4 kt METAR LTCC 151820Z 30004KT CAVOK 14/09 Q1017 NOSIG
20:50
V
15 °C 10 km+ - 280° 280° 5 kt METAR LTCC 151750Z 28005KT CAVOK 15/09 Q1017 NOSIG RMK RWY16 26004KT SKC
20:20
V
15 °C 10 km+ - 310° 310° 4 kt METAR LTCC 151720Z 31004KT CAVOK 15/09 Q1016 NOSIG
19:50
V
16 °C 10 km+ - Var Var 2 kt METAR LTCC 151650Z VRB02KT CAVOK 16/09 Q1016 NOSIG RMK RWY16 26003KT SKC
19:20
V
17 °C 10 km+ - 180° 180° 4 kt METAR LTCC 151620Z 18004KT 140V200 CAVOK 17/09 Q1016 NOSIG
18:50
V
18 °C 10 km+ - 140° 140° 6 kt METAR LTCC 151550Z 14006KT 9999 FEW040 18/09 Q1015 NOSIG RMK RWY16 15005KT 090V170 1CU040
18:20
V
20 °C 10 km+ - 140° 140° 8 kt METAR LTCC 151520Z 14008KT 9999 FEW040 20/10 Q1015 NOSIG
17:50
V
22 °C 10 km+ - 100° 100° 5 kt METAR LTCC 151450Z 10005KT 9999 FEW040 22/08 Q1015 NOSIG RMK RWY16 10005KT 070V160 2CU040
17:20
V
23 °C 10 km+ - 100° 100° 6 kt METAR LTCC 151420Z 10006KT 9999 FEW040 23/09 Q1014 NOSIG
16:50
V
23 °C 10 km+ - 100° 100° 5 kt METAR LTCC 151350Z 10005KT 060V130 9999 FEW040 23/09 Q1014 NOSIG RMK RWY16 09007KT 030V130 2CU040
16:20
V
23 °C 10 km+ - 080° 080° 6 kt METAR LTCC 151320Z 08006KT 050V110 9999 FEW040 23/08 Q1014 NOSIG
15:50
V
23 °C 10 km+ - 080° 080° 6 kt METAR LTCC 151250Z 08006KT 030V160 9999 FEW040 23/08 Q1014 NOSIG RMK RWY16 07006KT 350V110 1CU040
15:20
V
23 °C 10 km+ - 050° 050° 6 kt METAR LTCC 151220Z 05006KT 010V090 9999 FEW040 23/08 Q1014 NOSIG
14:50
V
23 °C 10 km+ - Var Var 4 kt METAR LTCC 151150Z VRB04KT 9999 FEW040 23/10 Q1014 NOSIG RMK RWY16 VRB05KT 1CU040
14:20
V
23 °C 10 km+ - 360° 360° 6 kt METAR LTCC 151120Z 36006KT 320V080 9999 FEW040 SCT200 23/09 Q1014 NOSIG
13:50
V
23 °C 10 km+ - 040° 040° 4 kt METAR LTCC 151050Z 04004KT 340V140 9999 FEW040 SCT200 23/11 Q1015 NOSIG RMK RWY16 03006KT 340V110 1CU040 3CI200
13:20
V
22 °C 10 km+ - 110° 110° 8 kt METAR LTCC 151020Z 11008KT 9999 FEW040 SCT200 22/10 Q1015 NOSIG
12:50
V
22 °C 10 km+ - 080° 080° 7 kt METAR LTCC 150950Z 08007KT 040V130 9999 FEW040 SCT200 22/09 Q1015 NOSIG RMK RWY16 01007KT 340V100 1CU040 3CI200
12:20
V
21 °C 10 km+ - 120° 120° 7 kt METAR LTCC 150920Z 12007KT 9999 FEW040 SCT200 21/09 Q1015 NOSIG
11:50
V
21 °C 10 km+ - 050° 050° 7 kt METAR LTCC 150850Z 05007KT 010V110 9999 FEW040 SCT200 21/09 Q1015 NOSIG RMK RWY16 06006KT 360V130 1CU040 3CI200
11:20
V
21 °C 10 km+ - Var Var 3 kt METAR LTCC 150820Z VRB03KT 9999 FEW040 SCT200 21/10 Q1015 NOSIG
10:50
V
21 °C 10 km+ - 090° 090° 6 kt METAR LTCC 150750Z 09006KT 340V140 9999 FEW040 SCT200 21/10 Q1015 NOSIG RMK RWY16 04004KT 350V130 1CU040 4CI200
10:20
V
20 °C 10 km+ - Var Var 6 kt METAR LTCC 150720Z VRB06KT 9999 FEW040 SCT200 20/09 Q1015 NOSIG
09:50
V
20 °C 10 km+ - 020° 020° 7 kt METAR LTCC 150650Z 02007KT 330V070 9999 FEW040 SCT200 20/08 Q1015 NOSIG RMK RWY16 01007KT 310V090 1CU040 4CI200
09:20
V
19 °C 10 km+ - 360° 360° 8 kt METAR LTCC 150620Z 36008KT 9999 FEW040 SCT200 19/08 Q1014 NOSIG
08:50
V
18 °C 10 km+ - 360° 360° 10 kt METAR LTCC 150550Z 36010KT 330V030 9999 FEW040 SCT200 18/09 Q1014 NOSIG RMK RWY16 01010KT 1CU040 4CI200
08:20
V
17 °C 10 km+ - 350° 350° 9 kt METAR LTCC 150520Z 35009KT 320V020 9999 FEW040 SCT200 17/08 Q1014 NOSIG
07:50
V
16 °C 10 km+ - 330° 330° 7 kt METAR LTCC 150450Z 33007KT 9999 FEW040 SCT200 16/10 Q1014 NOSIG
07:20
V
15 °C 10 km+ 10.000 ft 310° 310° 7 kt METAR LTCC 150420Z 31007KT 280V340 9999 SCT040 BKN100 15/10 Q1014 NOSIG
06:50
V
13 °C 10 km+ 10.000 ft 270° 270° 4 kt METAR LTCC 150350Z 27004KT 9999 SCT040 BKN100 13/11 Q1013 NOSIG RMK RWY16 29003KT 260V350 3CU040 5AC100
06:20
V
12 °C 10 km+ 10.000 ft 210° 210° 3 kt METAR LTCC 150320Z 21003KT 9999 SCT040 BKN100 12/10 Q1013 NOSIG
05:50
V
12 °C 10 km+ 10.000 ft 180° 180° 3 kt METAR LTCC 150250Z 18003KT 160V230 9999 SCT040 BKN100 12/11 Q1013 NOSIG RMK RWY16 34006KT 290V350 3CU040 5AC100
05:20
V
14 °C 10 km+ 10.000 ft 330° 330° 7 kt METAR LTCC 150220Z 33007KT 9999 SCT040 BKN100 14/10 Q1012 NOSIG
04:50
V
13 °C 10 km+ 10.000 ft 330° 330° 9 kt METAR LTCC 150150Z 33009KT 9999 SCT040 BKN100 13/10 Q1012 NOSIG RMK RWY16 33011KT 280V350 3CU040 5AC100
04:20
V
13 °C 10 km+ 10.000 ft 300° 300° 6 kt METAR LTCC 150120Z 30006KT 9999 SCT040 BKN100 13/11 Q1012 NOSIG
03:50
V
13 °C 10 km+ 10.000 ft 320° 320° 6 kt METAR LTCC 150050Z 32006KT 9999 SCT040 BKN100 13/11 Q1013 NOSIG RMK RWY16 28005KT 270V330 3CU040 5AC100
03:20
V
12 °C 10 km+ 10.000 ft 310° 310° 4 kt METAR LTCC 150020Z 31004KT 9999 SCT040 BKN100 12/11 Q1013 NOSIG
02:50
V
13 °C 10 km+ 10.000 ft Var Var 2 kt METAR LTCC 142350Z VRB02KT 9999 SCT040 BKN100 13/11 Q1013 NOSIG RMK RWY16 VRB02KT 3CU040 5AC100
02:20
V
13 °C 10 km+ 10.000 ft Var Var 2 kt METAR LTCC 142320Z VRB02KT 9999 SCT040 BKN100 13/10 Q1013 NOSIG
01:50
V
13 °C 10 km+ 10.000 ft Var Var 2 kt METAR LTCC 142250Z VRB02KT 9999 SCT040 BKN100 13/10 Q1013 NOSIG RMK RWY16 00000KT 3CU040 5AC100
01:20
V
13 °C 10 km+ 10.000 ft Var Var 2 kt METAR LTCC 142220Z VRB02KT 9999 SCT040 BKN100 13/10 Q1013 NOSIG
00:50
V
13 °C 10 km+ 10.000 ft 090° 090° 3 kt METAR LTCC 142150Z 09003KT 010V130 9999 SCT040 BKN100 13/11 Q1013 NOSIG RMK RWY16 VRB02KT 3CU040 5AC100
00:20
V
13 °C 10 km+ 10.000 ft 260° 260° 4 kt METAR LTCC 142120Z 26004KT 240V020 9999 SCT040 BKN100 13/10 Q1012 NOSIG

14 de abril de 2024

Hora Código Tiempo Temp. Visibilidad Cielo nuboso Viento METAR/SPECI
23:50
V
14 °C 10 km+ 10.000 ft 280° 280° 3 kt METAR LTCC 142050Z 28003KT 170V340 9999 SCT040 BKN100 14/10 Q1013 RESHRA NOSIG RMK RWY16 VRB01KT 3CU040 5AC100
23:23
V
14 °C 10 km+ 10.000 ft 250° 250° 9 kt METAR LTCC 142023Z 25009KT 220V280 9999 -SHRA SCT035 BKN100 14/10 Q1012 NOSIG RMK RWY16 29008KT 4CU035 6AC100
23:20
V
14 °C 10 km+ 10.000 ft 260° 260° 8 kt METAR LTCC 142020Z 26008KT 9999 SCT040 BKN100 14/10 Q1012 NOSIG
22:50
V
13 °C 10 km+ 10.000 ft 120° 120° 11 kt METAR LTCC 141950Z 12011KT 100V170 9999 SCT040 BKN100 13/10 Q1013 NOSIG RMK RWY16 11011KT 090V170 3CU040 5AC100
22:20
V
13 °C 10 km+ 10.000 ft 280° 280° 5 kt METAR LTCC 141920Z 28005KT 9999 SCT040 BKN100 13/09 Q1011 NOSIG
21:50
V
13 °C 10 km+ 10.000 ft 260° 260° 4 kt METAR LTCC 141850Z 26004KT 220V280 9999 SCT040 BKN100 13/09 Q1011 NOSIG RMK RWY16 25004KT 3CU040 5AC100
21:20
V
14 °C 10 km+ 10.000 ft 260° 260° 4 kt METAR LTCC 141820Z 26004KT 240V300 9999 SCT040 BKN100 14/10 Q1011 NOSIG
20:50
V
15 °C 10 km+ 10.000 ft Var Var 2 kt METAR LTCC 141750Z VRB02KT 9999 SCT040 BKN100 15/09 Q1011 NOSIG
20:20
V
16 °C 10 km+ 10.000 ft 120° 120° 3 kt METAR LTCC 141720Z 12003KT 080V140 9999 SCT040 BKN100 16/10 Q1011 NOSIG
19:50
V
16 °C 10 km+ 10.000 ft Var Var 1 kt METAR LTCC 141650Z VRB01KT 9999 SCT040 BKN100 16/11 Q1011 NOSIG RMK RWY16 34005KT 4CU040 6AC100
19:20
V
17 °C 10 km+ 10.000 ft 340° 340° 4 kt METAR LTCC 141620Z 34004KT 9999 SCT040 BKN100 17/11 Q1010 NOSIG
18:50
V
18 °C 10 km+ 10.000 ft 230° 230° 3 kt METAR LTCC 141550Z 23003KT 9999 SCT040 BKN100 18/10 Q1010 NOSIG RMK RWY16 25004KT 4CU040 6AC100
18:20
V
18 °C 10 km+ 10.000 ft 110° 110° 3 kt METAR LTCC 141520Z 11003KT 070V130 9999 SCT040 BKN100 18/10 Q1010 NOSIG
17:50
V
18 °C 10 km+ 10.000 ft Var Var 2 kt METAR LTCC 141450Z VRB02KT 9999 SCT040 BKN100 18/11 Q1010 NOSIG RMK RWY16 13004KT 090V170 4CU040 6AC100
17:20
V
18 °C 10 km+ 10.000 ft 140° 140° 6 kt METAR LTCC 141420Z 14006KT 9999 SCT040 BKN100 18/11 Q1010 NOSIG
16:50
V
19 °C 10 km+ 10.000 ft 100° 100° 3 kt METAR LTCC 141350Z 10003KT 9999 SCT040 BKN100 19/09 Q1010 NOSIG RMK RWY16 14004KT 090V170 4CU040 6AC100
16:20
V
19 °C 10 km+ 10.000 ft 220° 220° 3 kt METAR LTCC 141320Z 22003KT 170V240 9999 SCT040 BKN100 19/11 Q1010 NOSIG
15:50
V
19 °C 10 km+ 10.000 ft 240° 240° 5 kt METAR LTCC 141250Z 24005KT 9999 SCT040 BKN100 19/11 Q1010 NOSIG RMK RWY16 23006KT 180V260 4CU040 6AC100
15:20
V
20 °C 10 km+ 10.000 ft 220° 220° 5 kt METAR LTCC 141220Z 22005KT 180V260 9999 SCT040 BKN100 20/09 Q1010 NOSIG
14:50
V
21 °C 10 km+ 10.000 ft 200° 200° 4 kt METAR LTCC 141150Z 20004KT 9999 SCT040 BKN100 21/10 Q1010 NOSIG RMK RWY16 19005KT 4CU040 6AC100
14:20
V
20 °C 10 km+ 10.000 ft 190° 190° 9 kt METAR LTCC 141120Z 19009KT 9999 SCT040 BKN100 20/10 Q1010 NOSIG
13:50
V
20 °C 10 km+ 10.000 ft 190° 190° 12 kt METAR LTCC 141050Z 19012KT 9999 SCT040 BKN100 20/12 Q1011 NOSIG RMK RWY16 18010KT 4CU040 6AC100
13:20
V
22 °C 10 km+ - 080° 080° 5 kt METAR LTCC 141020Z 08005KT 020V130 9999 SCT040 SCT100 22/08 Q1011 NOSIG
12:50
V
23 °C 10 km+ - Var Var 2 kt METAR LTCC 140950Z VRB02KT 9999 SCT040 23/11 Q1011 NOSIG RMK RWY16 22003KT 160V270 3CU040
12:20
V
22 °C 10 km+ - Var Var 3 kt METAR LTCC 140920Z VRB03KT 9999 SCT040 22/11 Q1012 NOSIG
11:50
V
21 °C 10 km+ - 100° 100° 4 kt METAR LTCC 140850Z 10004KT 020V180 9999 SCT040 21/10 Q1012 NOSIG RMK RWY16 VRB04KT 3CU040
11:20
V
21 °C 10 km+ - 100° 100° 4 kt METAR LTCC 140820Z 10004KT 050V150 9999 FEW040 21/09 Q1012 NOSIG
10:50
V
20 °C 10 km+ - Var Var 4 kt METAR LTCC 140750Z VRB04KT 9999 FEW040 20/10 Q1012 NOSIG RMK RWY16 VRB04KT 2CU040
10:20
V
19 °C 10 km+ - 010° 010° 4 kt METAR LTCC 140720Z 01004KT 330V070 9999 FEW040 19/12 Q1013 NOSIG
09:50
V
18 °C 10 km+ - 110° 110° 3 kt METAR LTCC 140650Z 11003KT 060V140 CAVOK 18/11 Q1013 NOSIG RMK RWY16 02005KT 340V090 2CI200
09:20
V
16 °C 10 km+ - 090° 090° 4 kt METAR LTCC 140620Z 09004KT 050V140 CAVOK 16/11 Q1013 NOSIG
08:50
V
15 °C 10 km+ - 070° 070° 4 kt METAR LTCC 140550Z 07004KT CAVOK 15/11 Q1013 NOSIG RMK RWY16 VRB04KT SKC
Cambiar esta información